Time;durP1;ratioP1;P1;durP2;ratioP2;P2;SDS_P1;SDS_P2;PMS_P1;PMS_P2;Temp;Humidity;BMP_temperature;BMP_pressure;BME280_temperature;BME280_humidity;BME280_pressure;Samples;Min_cycle;Max_cycle;Signal;HPM_P1;HPM_P2
2020/12/20 00:00:17;;;;;;;;;;;11.40;79.90;;;;;;4772138;30;19914;-82
2020/12/20 00:02:50;;;;;;;;;;;11.30;79.80;;;;;;4756403;30;19920;-82
2020/12/20 00:05:16;;;;;;;;;;;11.30;79.80;;;;;;4756380;30;19918;-82
2020/12/20 00:07:41;;;;;;;;;;;11.30;79.80;;;;;;4756633;30;19918;-82
2020/12/20 00:10:07;;;;;;;;;;;11.30;79.90;;;;;;4772502;30;20388;-82
2020/12/20 00:12:34;;;;;;;;;;;11.30;79.90;;;;;;4741987;30;20348;-82
2020/12/20 00:14:59;;;;;;;;;;;11.30;79.90;;;;;;4772532;30;19987;-82
2020/12/20 00:17:24;;;;;;;;;;;11.30;79.90;;;;;;4749943;30;19922;-82
2020/12/20 00:19:50;;;;;;;;;;;11.20;79.80;;;;;;4769657;30;19976;-82
2020/12/20 00:22:15;;;;;;;;;;;11.20;79.80;;;;;;4769813;30;19949;-82
2020/12/20 00:24:41;;;;;;;;;;;11.20;79.90;;;;;;4770664;30;19934;-82
2020/12/20 00:27:10;;;;;;;;;;;11.20;79.90;;;;;;4786599;30;19917;-82
2020/12/20 00:29:36;;;;;;;;;;;11.20;79.90;;;;;;4787694;30;19922;-82
2020/12/20 00:32:02;;;;;;;;;;;11.20;79.90;;;;;;4772297;30;20369;-82
2020/12/20 00:34:28;;;;;;;;;;;11.20;79.80;;;;;;4771938;30;20444;-82
2020/12/20 00:36:54;;;;;;;;;;;11.20;79.90;;;;;;4757004;29;19928;-82
2020/12/20 00:39:20;;;;;;;;;;;11.10;79.80;;;;;;4786877;29;19957;-82
2020/12/20 00:41:53;;;;;;;;;;;11.20;79.90;;;;;;4788064;30;19952;-82
2020/12/20 00:44:19;;;;;;;;;;;11.10;79.90;;;;;;4771628;30;20013;-82
2020/12/20 00:46:44;;;;;;;;;;;11.10;79.90;;;;;;4788191;30;20016;-82
2020/12/20 00:49:10;;;;;;;;;;;11.10;79.80;;;;;;4764309;30;19928;-82
2020/12/20 00:51:35;;;;;;;;;;;11.10;79.90;;;;;;4770158;30;19917;-82
2020/12/20 00:54:01;;;;;;;;;;;11.10;79.90;;;;;;4754155;30;19976;-82
2020/12/20 00:56:26;;;;;;;;;;;11.00;79.80;;;;;;4769779;30;19914;-82
2020/12/20 00:58:52;;;;;;;;;;;11.10;79.90;;;;;;4770047;30;19926;-82
2020/12/20 01:01:18;;;;;;;;;;;11.00;79.90;;;;;;4769686;30;19917;-82
2020/12/20 01:03:44;;;;;;;;;;;11.00;79.90;;;;;;4739185;30;19918;-82
2020/12/20 01:06:19;;;;;;;;;;;11.00;80.00;;;;;;4769984;30;20358;-82
2020/12/20 01:08:44;;;;;;;;;;;10.90;79.90;;;;;;4753797;30;19918;-82
2020/12/20 01:11:10;;;;;;;;;;;11.00;80.00;;;;;;4769512;30;20343;-82
2020/12/20 01:13:36;;;;;;;;;;;10.90;80.00;;;;;;4769831;30;19952;-82
2020/12/20 01:16:02;;;;;;;;;;;10.90;80.00;;;;;;4769842;30;20389;-82
2020/12/20 01:18:27;;;;;;;;;;;10.90;80.00;;;;;;4753354;30;19918;-82
2020/12/20 01:20:53;;;;;;;;;;;10.90;80.10;;;;;;4738963;30;19950;-82
2020/12/20 01:23:18;;;;;;;;;;;10.90;80.10;;;;;;4769120;30;19932;-82
2020/12/20 01:25:44;;;;;;;;;;;10.90;80.10;;;;;;4769493;30;19922;-82
2020/12/20 01:28:09;;;;;;;;;;;10.80;80.00;;;;;;4769787;30;19922;-82
2020/12/20 01:30:35;;;;;;;;;;;10.80;80.10;;;;;;4753160;30;20034;-82
2020/12/20 01:33:00;;;;;;;;;;;10.80;80.10;;;;;;4769478;30;20327;-82
2020/12/20 01:35:26;;;;;;;;;;;10.80;80.10;;;;;;4753071;30;19913;-82
2020/12/20 01:37:51;;;;;;;;;;;10.80;80.20;;;;;;4753266;30;19921;-82
2020/12/20 01:40:17;;;;;;;;;;;10.80;80.20;;;;;;4753006;30;19922;-82
2020/12/20 01:42:42;;;;;;;;;;;10.80;80.30;;;;;;4738570;30;19918;-82
2020/12/20 01:45:09;;;;;;;;;;;10.80;80.30;;;;;;4769283;30;19922;-82
2020/12/20 01:47:34;;;;;;;;;;;10.80;80.30;;;;;;4768921;30;20447;-82
2020/12/20 01:50:00;;;;;;;;;;;10.80;80.30;;;;;;4750720;30;20015;-82
2020/12/20 01:52:26;;;;;;;;;;;10.80;80.30;;;;;;4772372;29;19928;-82
2020/12/20 01:54:54;;;;;;;;;;;10.80;80.30;;;;;;4769511;30;19926;-82
2020/12/20 01:57:19;;;;;;;;;;;10.80;80.30;;;;;;4768702;30;20365;-82
2020/12/20 01:59:45;;;;;;;;;;;10.80;80.40;;;;;;4769908;30;19922;-82
2020/12/20 02:02:10;;;;;;;;;;;10.80;80.40;;;;;;4752972;30;20013;-82
2020/12/20 02:04:36;;;;;;;;;;;10.80;80.50;;;;;;4752593;30;19987;-82
2020/12/20 02:07:02;;;;;;;;;;;10.80;80.60;;;;;;4752989;30;20343;-82
2020/12/20 02:09:27;;;;;;;;;;;10.80;80.70;;;;;;4752378;30;20339;-81
2020/12/20 02:12:00;;;;;;;;;;;10.80;80.80;;;;;;4768937;30;20276;-82
2020/12/20 02:14:25;;;;;;;;;;;10.80;80.70;;;;;;4752539;30;19925;-82
2020/12/20 02:16:51;;;;;;;;;;;10.80;80.70;;;;;;4777521;30;19922;-82
2020/12/20 02:19:19;;;;;;;;;;;10.80;80.60;;;;;;4786364;30;19925;-82
2020/12/20 02:21:44;;;;;;;;;;;10.80;80.70;;;;;;4770724;30;19924;-82
2020/12/20 02:24:10;;;;;;;;;;;10.80;80.70;;;;;;4770210;30;19930;-82
2020/12/20 02:26:35;;;;;;;;;;;10.80;80.60;;;;;;4770046;30;19917;-82
2020/12/20 02:29:01;;;;;;;;;;;10.80;81.30;;;;;;4783005;29;19918;-82
2020/12/20 02:31:26;;;;;;;;;;;10.80;80.60;;;;;;4752238;30;19918;-82
2020/12/20 02:33:52;;;;;;;;;;;10.80;80.60;;;;;;4768576;30;19918;-82
2020/12/20 02:36:18;;;;;;;;;;;10.80;80.50;;;;;;4768214;30;19918;-81
2020/12/20 02:38:43;;;;;;;;;;;10.80;80.50;;;;;;4752396;30;19918;-82
2020/12/20 02:41:09;;;;;;;;;;;10.90;80.50;;;;;;4768513;30;19941;-82
2020/12/20 02:43:34;;;;;;;;;;;10.90;80.50;;;;;;4768049;30;20288;-82
2020/12/20 02:46:00;;;;;;;;;;;10.80;80.50;;;;;;4752384;30;19988;-82
2020/12/20 02:48:25;;;;;;;;;;;10.80;80.50;;;;;;4768220;30;20258;-82
2020/12/20 02:50:51;;;;;;;;;;;10.80;80.40;;;;;;4752358;30;19921;-82
2020/12/20 02:53:16;;;;;;;;;;;10.90;80.50;;;;;;4737282;30;19933;-82
2020/12/20 02:55:42;;;;;;;;;;;10.90;80.50;;;;;;4752382;30;20427;-82
2020/12/20 02:58:08;;;;;;;;;;;10.80;80.50;;;;;;4752386;30;20004;-82
2020/12/20 03:00:36;;;;;;;;;;;10.90;80.50;;;;;;4769076;30;19948;-82
2020/12/20 03:03:02;;;;;;;;;;;10.80;80.50;;;;;;4756194;30;20269;-82
2020/12/20 03:05:27;;;;;;;;;;;10.80;80.50;;;;;;4755638;30;19914;-82
2020/12/20 03:07:53;;;;;;;;;;;10.80;80.60;;;;;;4756036;30;19925;-82
2020/12/20 03:10:18;;;;;;;;;;;10.80;80.60;;;;;;4771512;30;20387;-82
2020/12/20 03:12:44;;;;;;;;;;;10.80;80.60;;;;;;4771922;30;19979;-84
2020/12/20 03:15:10;;;;;;;;;;;10.80;80.60;;;;;;4771944;30;20392;-84
2020/12/20 03:17:36;;;;;;;;;;;10.80;80.50;;;;;;4755403;30;19981;-84
2020/12/20 03:20:02;;;;;;;;;;;10.90;80.60;;;;;;4771996;30;19960;-84
2020/12/20 03:22:28;;;;;;;;;;;10.80;80.50;;;;;;4771379;30;20305;-84
2020/12/20 03:24:53;;;;;;;;;;;10.80;80.50;;;;;;4771472;30;19982;-84
2020/12/20 03:27:19;;;;;;;;;;;10.80;80.50;;;;;;4755352;30;19940;-84
2020/12/20 03:29:44;;;;;;;;;;;10.80;80.50;;;;;;4763333;30;19932;-84
2020/12/20 03:32:10;;;;;;;;;;;10.80;80.50;;;;;;4773615;30;19964;-84
2020/12/20 03:34:35;;;;;;;;;;;10.90;80.60;;;;;;4772917;30;20058;-84
2020/12/20 03:37:01;;;;;;;;;;;10.80;80.60;;;;;;4789406;30;19957;-84
2020/12/20 03:39:26;;;;;;;;;;;10.90;80.60;;;;;;4761699;24;19937;-82
2020/12/20 03:41:52;;;;;;;;;;;10.90;80.70;;;;;;4736474;30;20400;-82
2020/12/20 03:44:18;;;;;;;;;;;10.80;80.60;;;;;;4751822;30;19922;-81
2020/12/20 03:46:43;;;;;;;;;;;10.80;80.70;;;;;;4736059;30;19990;-82
2020/12/20 03:49:09;;;;;;;;;;;10.80;80.60;;;;;;4736017;30;19926;-82
2020/12/20 03:51:34;;;;;;;;;;;10.90;80.70;;;;;;4750506;30;19918;-82
2020/12/20 03:54:03;;;;;;;;;;;10.90;80.60;;;;;;4735971;30;19918;-82
2020/12/20 03:56:28;;;;;;;;;;;10.80;80.60;;;;;;4751690;30;20398;-82
2020/12/20 03:58:54;;;;;;;;;;;10.90;80.70;;;;;;4750357;30;20018;-82
2020/12/20 04:01:19;;;;;;;;;;;10.90;80.70;;;;;;4735572;30;20377;-83
2020/12/20 04:03:45;;;;;;;;;;;10.80;80.60;;;;;;4750862;30;19929;-83
2020/12/20 04:06:10;;;;;;;;;;;10.90;80.80;;;;;;4735864;30;19953;-83
2020/12/20 04:08:37;;;;;;;;;;;10.90;80.80;;;;;;4751971;30;19930;-84
2020/12/20 04:11:02;;;;;;;;;;;10.90;80.70;;;;;;4745575;30;19934;-84
2020/12/20 04:13:32;;;;;;;;;;;10.90;80.70;;;;;;4735806;30;19936;-82
2020/12/20 04:16:07;;;;;;;;;;;10.90;80.70;;;;;;4736883;30;19918;-82
2020/12/20 04:18:33;;;;;;;;;;;10.90;80.70;;;;;;4752444;30;19921;-82
2020/12/20 04:20:58;;;;;;;;;;;10.90;80.70;;;;;;4752288;30;19922;-82
2020/12/20 04:23:24;;;;;;;;;;;10.90;80.70;;;;;;4752115;30;19964;-85
2020/12/20 04:25:50;;;;;;;;;;;10.90;80.80;;;;;;4736195;30;20389;-86
2020/12/20 04:28:15;;;;;;;;;;;10.90;80.80;;;;;;4751849;30;20355;-86
2020/12/20 04:30:41;;;;;;;;;;;10.90;80.80;;;;;;4744164;30;19923;-86
2020/12/20 04:33:07;;;;;;;;;;;10.90;80.80;;;;;;4741834;30;19914;-82
2020/12/20 04:35:32;;;;;;;;;;;10.90;80.70;;;;;;4727746;30;20341;-82
2020/12/20 04:37:58;;;;;;;;;;;10.90;80.70;;;;;;4688246;30;1285122;-86
2020/12/20 04:40:24;;;;;;;;;;;10.90;80.80;;;;;;4752913;30;19926;-85
2020/12/20 04:42:50;;;;;;;;;;;10.90;80.80;;;;;;4746129;30;19918;-86
2020/12/20 04:45:16;;;;;;;;;;;10.90;80.80;;;;;;4748797;30;20285;-85
2020/12/20 04:47:42;;;;;;;;;;;10.90;80.80;;;;;;4750329;30;20361;-86
2020/12/20 04:50:08;;;;;;;;;;;10.90;80.80;;;;;;4749858;30;19922;-87
2020/12/20 04:52:35;;;;;;;;;;;10.90;80.80;;;;;;4736957;30;20076;-87
2020/12/20 04:55:01;;;;;;;;;;;10.90;80.80;;;;;;4752025;30;19918;-87
2020/12/20 04:57:27;;;;;;;;;;;10.90;80.80;;;;;;4750025;30;19930;-87
2020/12/20 04:59:52;;;;;;;;;;;10.90;80.80;;;;;;4737053;30;19919;-86
2020/12/20 05:02:18;;;;;;;;;;;10.90;80.80;;;;;;4751149;30;20095;-82
2020/12/20 05:04:44;;;;;;;;;;;10.90;80.80;;;;;;4748377;30;19926;-82
2020/12/20 05:07:09;;;;;;;;;;;10.90;80.80;;;;;;4734882;30;20297;-82
2020/12/20 05:09:45;;;;;;;;;;;10.90;80.70;;;;;;4751555;30;19926;-82
2020/12/20 05:12:24;;;;;;;;;;;10.90;80.70;;;;;;4752226;30;19914;-82
2020/12/20 05:14:49;;;;;;;;;;;10.90;80.70;;;;;;4752098;30;19976;-81
2020/12/20 05:17:18;;;;;;;;;;;10.90;80.70;;;;;;4750765;30;19919;-82
2020/12/20 05:19:44;;;;;;;;;;;10.90;80.70;;;;;;4735530;30;19922;-81
2020/12/20 05:22:16;;;;;;;;;;;11.00;80.80;;;;;;4750323;30;20336;-82
2020/12/20 05:24:42;;;;;;;;;;;10.90;80.70;;;;;;4750956;30;19968;-82
2020/12/20 05:27:24;;;;;;;;;;;10.90;80.70;;;;;;4735974;30;20017;-82
2020/12/20 05:29:50;;;;;;;;;;;10.90;80.70;;;;;;4750304;30;19926;-81
2020/12/20 05:32:30;;;;;;;;;;;10.90;80.70;;;;;;4752022;30;19953;-81
2020/12/20 05:35:03;;;;;;;;;;;10.90;80.70;;;;;;4751780;30;19919;-82
2020/12/20 05:37:30;;;;;;;;;;;10.90;80.60;;;;;;4751533;30;19925;-82
2020/12/20 05:39:55;;;;;;;;;;;10.90;80.70;;;;;;4750185;30;19934;-82
2020/12/20 05:42:24;;;;;;;;;;;10.90;80.70;;;;;;4750393;30;20025;-82
2020/12/20 05:45:03;;;;;;;;;;;10.90;80.70;;;;;;4750285;30;19921;-82
2020/12/20 05:47:29;;;;;;;;;;;10.90;80.70;;;;;;4750060;30;19976;-82
2020/12/20 05:49:54;;;;;;;;;;;10.90;80.60;;;;;;4749754;30;19927;-82
2020/12/20 05:52:20;;;;;;;;;;;10.90;80.70;;;;;;4750183;30;19948;-82
2020/12/20 05:54:45;;;;;;;;;;;10.90;80.70;;;;;;4751073;30;19972;-82
2020/12/20 05:57:12;;;;;;;;;;;10.90;80.70;;;;;;4750094;30;20373;-82
2020/12/20 05:59:38;;;;;;;;;;;10.90;80.70;;;;;;4751048;30;19922;-82
2020/12/20 06:02:04;;;;;;;;;;;10.90;80.70;;;;;;4751221;30;19922;-82
2020/12/20 06:04:30;;;;;;;;;;;10.90;80.70;;;;;;4734947;30;19972;-82
2020/12/20 06:06:56;;;;;;;;;;;10.90;80.60;;;;;;4751106;30;19971;-82
2020/12/20 06:09:24;;;;;;;;;;;10.90;80.60;;;;;;4749955;30;20384;-86
2020/12/20 06:11:51;;;;;;;;;;;10.90;80.60;;;;;;4751254;30;19922;-86
2020/12/20 06:14:18;;;;;;;;;;;10.80;80.60;;;;;;4750196;30;19914;-86
2020/12/20 06:16:46;;;;;;;;;;;10.90;80.60;;;;;;4749415;30;20290;-82
2020/12/20 06:19:21;;;;;;;;;;;10.80;80.60;;;;;;4750757;30;19957;-82
2020/12/20 06:22:01;;;;;;;;;;;10.90;80.60;;;;;;4749549;30;20011;-81
2020/12/20 06:24:26;;;;;;;;;;;10.90;80.60;;;;;;4749004;30;19944;-82
2020/12/20 06:26:56;;;;;;;;;;;10.80;80.60;;;;;;4749141;30;20012;-82
2020/12/20 06:29:22;;;;;;;;;;;10.80;80.60;;;;;;4749811;30;19973;-82
2020/12/20 06:31:49;;;;;;;;;;;10.80;80.60;;;;;;4750874;30;19914;-81
2020/12/20 06:34:16;;;;;;;;;;;10.80;80.60;;;;;;4749675;30;19941;-81
2020/12/20 06:36:43;;;;;;;;;;;10.80;80.60;;;;;;4748488;30;19969;-82
2020/12/20 06:39:08;;;;;;;;;;;10.80;80.60;;;;;;4749461;30;19936;-81
2020/12/20 06:41:35;;;;;;;;;;;10.70;80.50;;;;;;4748925;30;20013;-81
2020/12/20 06:44:10;;;;;;;;;;;10.80;80.60;;;;;;4748790;30;20011;-82
2020/12/20 06:46:37;;;;;;;;;;;10.80;80.60;;;;;;4750412;30;19919;-81
2020/12/20 06:49:23;;;;;;;;;;;10.70;80.60;;;;;;4749244;30;19961;-81
2020/12/20 06:51:48;;;;;;;;;;;10.70;80.60;;;;;;4732693;30;19977;-82
2020/12/20 06:54:23;;;;;;;;;;;10.70;80.60;;;;;;4731823;30;19958;-82
2020/12/20 06:57:07;;;;;;;;;;;10.70;80.60;;;;;;4732823;30;19918;-82
2020/12/20 06:59:44;;;;;;;;;;;10.70;80.60;;;;;;4732844;30;20344;-82
2020/12/20 07:02:10;;;;;;;;;;;10.70;80.60;;;;;;4738162;30;19927;-82
2020/12/20 07:04:40;;;;;;;;;;;10.60;80.50;;;;;;4734377;30;19926;-82
2020/12/20 07:07:10;;;;;;;;;;;10.70;80.60;;;;;;4748943;30;19929;-82
2020/12/20 07:09:35;;;;;;;;;;;10.60;80.60;;;;;;4750100;30;20316;-82
2020/12/20 07:12:01;;;;;;;;;;;10.60;80.60;;;;;;4749307;30;19914;-81
2020/12/20 07:14:33;;;;;;;;;;;10.60;80.60;;;;;;4750123;30;20184;-83
2020/12/20 07:16:58;;;;;;;;;;;10.60;80.60;;;;;;4749581;30;19922;-83
2020/12/20 07:19:25;;;;;;;;;;;10.60;80.60;;;;;;4733284;30;20305;-83
2020/12/20 07:21:53;;;;;;;;;;;10.60;80.60;;;;;;4750555;30;19914;-83
2020/12/20 07:24:20;;;;;;;;;;;10.60;80.60;;;;;;4750607;30;20318;-83
2020/12/20 07:26:46;;;;;;;;;;;10.50;80.60;;;;;;4750123;30;19918;-83
2020/12/20 07:29:12;;;;;;;;;;;10.50;80.70;;;;;;4749215;30;20332;-83
2020/12/20 07:31:38;;;;;;;;;;;10.50;80.60;;;;;;4748933;30;19948;-83
2020/12/20 07:34:04;;;;;;;;;;;10.50;80.70;;;;;;4749333;30;20274;-83
2020/12/20 07:36:30;;;;;;;;;;;10.50;80.70;;;;;;4748884;30;19918;-83
2020/12/20 07:38:55;;;;;;;;;;;10.50;80.70;;;;;;4749065;30;20028;-83
2020/12/20 07:41:23;;;;;;;;;;;10.50;80.70;;;;;;4749231;30;19918;-83
2020/12/20 07:43:49;;;;;;;;;;;10.50;80.70;;;;;;4748746;30;19961;-82
2020/12/20 07:46:15;;;;;;;;;;;10.50;80.70;;;;;;4750184;30;19950;-82
2020/12/20 07:48:41;;;;;;;;;;;10.40;80.70;;;;;;4752599;30;19926;-82
2020/12/20 07:51:09;;;;;;;;;;;10.50;80.80;;;;;;4751923;30;19926;-83
2020/12/20 07:53:46;;;;;;;;;;;10.40;80.70;;;;;;4752206;30;19969;-84
2020/12/20 07:56:20;;;;;;;;;;;10.40;80.70;;;;;;4752435;30;19925;-83
2020/12/20 07:58:46;;;;;;;;;;;10.40;80.80;;;;;;4752392;30;19941;-83
2020/12/20 08:01:11;;;;;;;;;;;10.40;80.80;;;;;;4752224;30;20292;-83
2020/12/20 08:03:37;;;;;;;;;;;10.40;80.70;;;;;;4752967;30;19968;-84
2020/12/20 08:06:13;;;;;;;;;;;10.40;80.70;;;;;;4743937;30;19922;-81
2020/12/20 08:08:39;;;;;;;;;;;10.40;80.70;;;;;;4748674;30;19922;-82
2020/12/20 08:11:28;;;;;;;;;;;10.40;80.70;;;;;;4734687;30;20231;-82
2020/12/20 08:13:54;;;;;;;;;;;10.40;80.70;;;;;;4750649;30;19944;-84
2020/12/20 08:16:47;;;;;;;;;;;10.40;80.80;;;;;;4751835;30;20060;-83
2020/12/20 08:19:13;;;;;;;;;;;10.40;80.80;;;;;;4748805;30;20353;-82
2020/12/20 08:21:42;;;;;;;;;;;10.40;80.70;;;;;;4749453;30;19940;-81
2020/12/20 08:24:09;;;;;;;;;;;10.40;80.80;;;;;;4751774;30;19918;-83
2020/12/20 08:26:35;;;;;;;;;;;10.40;80.70;;;;;;4735764;30;19930;-83
2020/12/20 08:29:01;;;;;;;;;;;10.40;80.90;;;;;;4719916;30;20277;-83
2020/12/20 08:31:28;;;;;;;;;;;10.40;80.90;;;;;;4733639;30;19918;-85
2020/12/20 08:33:54;;;;;;;;;;;10.40;80.90;;;;;;4733601;30;19947;-85
2020/12/20 08:36:21;;;;;;;;;;;10.40;80.90;;;;;;4733656;30;20346;-85
2020/12/20 08:38:50;;;;;;;;;;;10.40;80.90;;;;;;4744055;30;20420;-85
2020/12/20 08:41:39;;;;;;;;;;;10.40;80.90;;;;;;4751855;30;19985;-86
2020/12/20 08:44:10;;;;;;;;;;;10.50;80.90;;;;;;4752856;30;20357;-85
2020/12/20 08:46:37;;;;;;;;;;;10.50;80.90;;;;;;4751727;30;19918;-85
2020/12/20 08:49:13;;;;;;;;;;;10.50;80.90;;;;;;4752277;30;20015;-85
2020/12/20 08:51:40;;;;;;;;;;;10.50;80.90;;;;;;4751428;30;19918;-85
2020/12/20 08:54:06;;;;;;;;;;;10.50;80.80;;;;;;4751566;30;19980;-85
2020/12/20 08:56:32;;;;;;;;;;;10.50;80.80;;;;;;4751620;30;19925;-85
2020/12/20 08:59:05;;;;;;;;;;;10.50;80.80;;;;;;4732494;30;19922;-85
2020/12/20 09:01:40;;;;;;;;;;;10.50;80.80;;;;;;4734858;30;19918;-85
2020/12/20 09:04:15;;;;;;;;;;;10.60;80.80;;;;;;4751743;30;20085;-85
2020/12/20 09:06:41;;;;;;;;;;;10.50;80.80;;;;;;4751579;30;19914;-86
2020/12/20 09:09:13;;;;;;;;;;;10.50;81.00;;;;;;4736955;30;20397;-84
2020/12/20 09:11:38;;;;;;;;;;;10.50;80.90;;;;;;4751526;30;19961;-85
2020/12/20 09:14:09;;;;;;;;;;;10.60;81.00;;;;;;4736922;30;19965;-85
2020/12/20 09:16:41;;;;;;;;;;;10.60;81.10;;;;;;4751149;30;20056;-85
2020/12/20 09:19:12;;;;;;;;;;;10.60;81.10;;;;;;4736837;30;19918;-85
2020/12/20 09:21:39;;;;;;;;;;;10.60;81.10;;;;;;4751575;30;20080;-85
2020/12/20 09:24:05;;;;;;;;;;;10.60;81.10;;;;;;4736945;30;19918;-85
2020/12/20 09:26:30;;;;;;;;;;;10.60;81.10;;;;;;4736727;30;19918;-85
2020/12/20 09:28:56;;;;;;;;;;;10.60;81.20;;;;;;4751206;30;20407;-84
2020/12/20 09:31:23;;;;;;;;;;;10.70;81.20;;;;;;4751497;30;19926;-83
2020/12/20 09:33:50;;;;;;;;;;;10.70;81.10;;;;;;4754406;30;20347;-83
2020/12/20 09:36:22;;;;;;;;;;;10.70;81.10;;;;;;4755214;30;19921;-83
2020/12/20 09:38:49;;;;;;;;;;;10.70;81.10;;;;;;4775963;24;19936;-85
2020/12/20 09:41:37;;;;;;;;;;;10.70;81.10;;;;;;4755341;30;20418;-85
2020/12/20 09:44:20;;;;;;;;;;;10.70;81.20;;;;;;4754847;30;19925;-85
2020/12/20 09:46:48;;;;;;;;;;;10.80;81.30;;;;;;4737602;30;19922;-85
2020/12/20 09:49:20;;;;;;;;;;;10.80;81.30;;;;;;4721295;30;19919;-85
2020/12/20 09:51:48;;;;;;;;;;;10.80;81.30;;;;;;4727673;30;19918;-85
2020/12/20 09:54:13;;;;;;;;;;;10.80;81.10;;;;;;4733824;30;20030;-85
2020/12/20 09:56:42;;;;;;;;;;;10.80;81.20;;;;;;4704280;30;19919;-85
2020/12/20 09:59:07;;;;;;;;;;;10.90;81.30;;;;;;4719237;30;19978;-86
2020/12/20 10:01:39;;;;;;;;;;;10.90;81.20;;;;;;4715503;30;19962;-85
2020/12/20 10:04:07;;;;;;;;;;;10.90;81.20;;;;;;4715514;30;19962;-85
2020/12/20 10:06:32;;;;;;;;;;;11.00;81.30;;;;;;4699962;30;19921;-85
2020/12/20 10:08:58;;;;;;;;;;;10.90;81.30;;;;;;4685676;30;20021;-86
2020/12/20 10:11:24;;;;;;;;;;;11.00;81.30;;;;;;4683795;30;20070;-85
2020/12/20 10:13:59;;;;;;;;;;;11.00;81.40;;;;;;4677234;30;19919;-85
2020/12/20 10:16:25;;;;;;;;;;;11.00;81.40;;;;;;4671086;30;19931;-85
2020/12/20 10:18:59;;;;;;;;;;;11.00;81.50;;;;;;4733224;30;20275;-86
2020/12/20 10:21:25;;;;;;;;;;;11.00;81.40;;;;;;4735913;30;20138;-85
2020/12/20 10:23:50;;;;;;;;;;;11.10;81.30;;;;;;4720075;30;19922;-85
2020/12/20 10:26:16;;;;;;;;;;;11.10;81.40;;;;;;4715392;30;19930;-85
2020/12/20 10:28:41;;;;;;;;;;;11.10;81.30;;;;;;4733449;30;20016;-85
2020/12/20 10:31:07;;;;;;;;;;;11.10;81.20;;;;;;4720046;30;19930;-85
2020/12/20 10:33:32;;;;;;;;;;;11.20;81.80;;;;;;4751613;30;19918;-84
2020/12/20 10:36:01;;;;;;;;;;;11.20;81.20;;;;;;4770066;30;19918;-84
2020/12/20 10:38:26;;;;;;;;;;;11.20;81.20;;;;;;4721518;30;20019;-84
2020/12/20 10:40:52;;;;;;;;;;;11.20;81.20;;;;;;4736585;30;20334;-85
2020/12/20 10:43:17;;;;;;;;;;;11.30;81.20;;;;;;4751481;30;19921;-85
2020/12/20 10:45:43;;;;;;;;;;;11.30;81.20;;;;;;4753699;30;20343;-85
2020/12/20 10:48:09;;;;;;;;;;;11.30;81.10;;;;;;4750434;30;19918;-85
2020/12/20 10:50:34;;;;;;;;;;;11.30;81.10;;;;;;4744790;30;19960;-85
2020/12/20 10:53:01;;;;;;;;;;;11.30;81.00;;;;;;4754417;30;19924;-86
2020/12/20 10:55:27;;;;;;;;;;;11.30;81.00;;;;;;4769238;30;19914;-85
2020/12/20 10:57:52;;;;;;;;;;;11.40;80.90;;;;;;4739554;30;20495;-85
2020/12/20 11:00:17;;;;;;;;;;;11.40;80.90;;;;;;4753574;30;19921;-85
2020/12/20 11:02:43;;;;;;;;;;;11.40;80.90;;;;;;4754257;30;20373;-85
2020/12/20 11:05:08;;;;;;;;;;;11.40;80.90;;;;;;4753746;30;19918;-85
2020/12/20 11:07:34;;;;;;;;;;;11.40;80.90;;;;;;4738898;30;19925;-85
2020/12/20 11:10:02;;;;;;;;;;;11.40;80.80;;;;;;4753861;30;20373;-86
2020/12/20 11:12:28;;;;;;;;;;;11.50;80.90;;;;;;4769580;30;19918;-85
2020/12/20 11:14:53;;;;;;;;;;;11.50;80.90;;;;;;4739278;30;20064;-85
2020/12/20 11:17:19;;;;;;;;;;;11.50;80.80;;;;;;4749875;30;19976;-85
2020/12/20 11:19:45;;;;;;;;;;;11.50;80.80;;;;;;4760718;30;19940;-85
2020/12/20 11:22:11;;;;;;;;;;;11.50;80.80;;;;;;4740031;30;19957;-85
2020/12/20 11:24:37;;;;;;;;;;;11.60;80.90;;;;;;4759492;30;20404;-85
2020/12/20 11:27:02;;;;;;;;;;;11.60;80.80;;;;;;4755580;30;19949;-85
2020/12/20 11:29:28;;;;;;;;;;;11.60;80.80;;;;;;4754328;30;19972;-85
2020/12/20 11:31:54;;;;;;;;;;;11.60;80.70;;;;;;4739989;30;20309;-85
2020/12/20 11:34:22;;;;;;;;;;;11.60;80.70;;;;;;4754245;30;20005;-85
2020/12/20 11:36:50;;;;;;;;;;;11.60;80.60;;;;;;4756126;30;19973;-85
2020/12/20 11:39:22;;;;;;;;;;;11.70;80.70;;;;;;4772024;30;19941;-85
2020/12/20 11:41:48;;;;;;;;;;;11.70;80.60;;;;;;4770496;30;20273;-85
2020/12/20 11:44:16;;;;;;;;;;;11.70;80.50;;;;;;4742552;30;19918;-85
2020/12/20 11:46:43;;;;;;;;;;;11.70;80.50;;;;;;4772549;30;20285;-85
2020/12/20 11:49:09;;;;;;;;;;;11.80;80.50;;;;;;4757150;30;19948;-85
2020/12/20 11:51:34;;;;;;;;;;;11.80;80.50;;;;;;4773017;30;19922;-85
2020/12/20 11:54:00;;;;;;;;;;;11.80;80.50;;;;;;4757284;30;20369;-85
2020/12/20 11:56:26;;;;;;;;;;;11.80;80.40;;;;;;4773134;30;19918;-85
2020/12/20 11:58:51;;;;;;;;;;;11.80;80.50;;;;;;4757837;30;20435;-85
2020/12/20 12:01:21;;;;;;;;;;;11.80;80.40;;;;;;4741635;30;19918;-85
2020/12/20 12:03:47;;;;;;;;;;;11.90;81.10;;;;;;4754118;30;20021;-85
2020/12/20 12:06:12;;;;;;;;;;;11.90;80.40;;;;;;4754236;30;19979;-85
2020/12/20 12:08:38;;;;;;;;;;;11.90;80.40;;;;;;4755396;30;19972;-86
2020/12/20 12:11:04;;;;;;;;;;;11.90;80.30;;;;;;4758091;30;20020;-85
2020/12/20 12:13:31;;;;;;;;;;;11.90;80.30;;;;;;4756547;30;20659;-85
2020/12/20 12:16:02;;;;;;;;;;;12.00;80.30;;;;;;4742506;30;19918;-85
2020/12/20 12:18:27;;;;;;;;;;;12.00;80.30;;;;;;4756605;30;19957;-85
2020/12/20 12:20:53;;;;;;;;;;;12.00;80.30;;;;;;4772651;30;19945;-84
2020/12/20 12:23:18;;;;;;;;;;;12.00;80.30;;;;;;4741374;30;20356;-85
2020/12/20 12:25:49;;;;;;;;;;;12.00;80.20;;;;;;4741406;30;19918;-84
2020/12/20 12:28:15;;;;;;;;;;;12.10;80.20;;;;;;4755368;30;19969;-84
2020/12/20 12:30:40;;;;;;;;;;;12.10;80.20;;;;;;4770413;30;19972;-84
2020/12/20 12:33:06;;;;;;;;;;;12.10;80.20;;;;;;4754414;30;19918;-85
2020/12/20 12:35:31;;;;;;;;;;;12.10;80.10;;;;;;4736699;30;19922;-85
2020/12/20 12:38:13;;;;;;;;;;;12.10;80.10;;;;;;4752537;30;19969;-84
2020/12/20 12:40:38;;;;;;;;;;;12.10;80.10;;;;;;4757161;30;20722;-85
2020/12/20 12:43:04;;;;;;;;;;;12.20;80.10;;;;;;4755498;30;19918;-85
2020/12/20 12:45:30;;;;;;;;;;;12.20;80.00;;;;;;4755323;30;19921;-84
2020/12/20 12:47:58;;;;;;;;;;;12.20;80.00;;;;;;4741582;30;20387;-84
2020/12/20 12:50:24;;;;;;;;;;;12.20;80.00;;;;;;4771279;30;19929;-84
2020/12/20 12:52:58;;;;;;;;;;;12.20;79.90;;;;;;4741195;30;19918;-84
2020/12/20 12:55:24;;;;;;;;;;;12.20;79.90;;;;;;4723693;30;20424;-84
2020/12/20 12:57:53;;;;;;;;;;;12.30;80.00;;;;;;4738737;30;19962;-84
2020/12/20 13:00:18;;;;;;;;;;;12.30;80.00;;;;;;4755876;30;19914;-84
2020/12/20 13:02:51;;;;;;;;;;;12.30;79.90;;;;;;4755705;30;20273;-85
2020/12/20 13:08:20;;;;;;;;;;;12.40;79.80;;;;;;4753903;30;20458;-84
2020/12/20 13:10:45;;;;;;;;;;;12.40;79.70;;;;;;4737900;30;19974;-85
2020/12/20 13:13:11;;;;;;;;;;;12.40;79.60;;;;;;4753303;30;19915;-85
2020/12/20 13:15:36;;;;;;;;;;;12.40;79.60;;;;;;4752561;30;20297;-84
2020/12/20 13:18:02;;;;;;;;;;;12.40;79.50;;;;;;4738325;30;20262;-84
2020/12/20 13:20:28;;;;;;;;;;;12.50;79.40;;;;;;4752745;30;20339;-84
2020/12/20 13:22:53;;;;;;;;;;;12.50;79.40;;;;;;4755394;30;20427;-84
2020/12/20 13:25:19;;;;;;;;;;;12.50;79.30;;;;;;4740958;30;20511;-85
2020/12/20 13:27:44;;;;;;;;;;;12.50;79.10;;;;;;4771414;30;19921;-84
2020/12/20 13:30:10;;;;;;;;;;;12.50;79.00;;;;;;4740565;30;19944;-85
2020/12/20 13:32:35;;;;;;;;;;;12.50;79.00;;;;;;4739080;30;19967;-84
2020/12/20 13:35:02;;;;;;;;;;;12.50;78.80;;;;;;4769543;30;19914;-84
2020/12/20 13:37:27;;;;;;;;;;;12.60;78.90;;;;;;4753466;30;19960;-84
2020/12/20 13:39:53;;;;;;;;;;;12.60;78.80;;;;;;4738978;30;19996;-85
2020/12/20 13:42:20;;;;;;;;;;;12.60;78.40;;;;;;4753131;30;20051;-85
2020/12/20 13:44:46;;;;;;;;;;;12.50;78.00;;;;;;4753291;30;19918;-84
2020/12/20 13:47:11;;;;;;;;;;;12.60;78.30;;;;;;4755298;30;19925;-85
2020/12/20 13:49:39;;;;;;;;;;;12.60;78.30;;;;;;4756556;30;19929;-84
2020/12/20 13:52:05;;;;;;;;;;;12.60;78.30;;;;;;4723541;30;19926;-84
2020/12/20 13:54:30;;;;;;;;;;;12.60;78.30;;;;;;4737192;30;19944;-84
2020/12/20 13:57:01;;;;;;;;;;;12.60;78.30;;;;;;4737390;30;19914;-84
2020/12/20 13:59:27;;;;;;;;;;;12.60;78.30;;;;;;4736682;30;19914;-84
2020/12/20 14:01:55;;;;;;;;;;;12.60;78.30;;;;;;4722818;30;20017;-83
2020/12/20 14:04:21;;;;;;;;;;;12.60;78.30;;;;;;4722978;30;19967;-83
2020/12/20 14:06:46;;;;;;;;;;;12.60;78.30;;;;;;4736530;30;19958;-85
2020/12/20 14:09:12;;;;;;;;;;;12.60;78.30;;;;;;4722342;30;19968;-84
2020/12/20 14:11:38;;;;;;;;;;;12.70;78.40;;;;;;4752069;30;19918;-84
2020/12/20 14:14:03;;;;;;;;;;;12.60;78.30;;;;;;4739373;30;20048;-84
2020/12/20 14:16:29;;;;;;;;;;;12.60;78.40;;;;;;4754086;30;19914;-84
2020/12/20 14:18:55;;;;;;;;;;;12.60;78.40;;;;;;4753014;30;19922;-84